createdAt,value
2022-09-26T00:01:45.812Z,11.41
2022-09-26T00:04:25.269Z,11.44
2022-09-26T00:06:57.414Z,11.46
2022-09-26T00:09:27.351Z,11.48
2022-09-26T00:11:56.145Z,11.49
2022-09-26T00:14:27.693Z,11.50
2022-09-26T00:16:56.555Z,11.52
2022-09-26T00:19:25.419Z,11.52
2022-09-26T00:21:53.736Z,11.50
2022-09-26T00:24:21.614Z,11.47
2022-09-26T00:26:51.308Z,11.43
2022-09-26T00:29:19.133Z,11.39
2022-09-26T00:31:49.208Z,11.35
2022-09-26T00:34:19.994Z,11.32
2022-09-26T00:36:49.721Z,11.29
2022-09-26T00:39:18.039Z,11.26
2022-09-26T00:41:45.919Z,11.24
2022-09-26T00:44:45.220Z,11.24
2022-09-26T00:47:29.713Z,11.24
2022-09-26T00:50:10.857Z,11.25
2022-09-26T00:53:12.548Z,11.25
2022-09-26T00:55:47.270Z,11.27
2022-09-26T00:58:20.373Z,11.28
2022-09-26T01:00:50.019Z,11.30
2022-09-26T01:03:20.726Z,11.31
2022-09-26T01:05:49.233Z,11.32
2022-09-26T01:08:22.522Z,11.33
2022-09-26T01:10:50.697Z,11.34
2022-09-26T01:13:18.585Z,11.35
2022-09-26T01:15:46.340Z,11.37
2022-09-26T01:18:14.288Z,11.38
2022-09-26T01:20:49.487Z,11.38
2022-09-26T01:23:42.306Z,11.38
2022-09-26T01:26:24.089Z,11.36
2022-09-26T01:29:26.419Z,11.33
2022-09-26T01:32:39.732Z,11.29
2022-09-26T01:35:36.677Z,11.26
2022-09-26T01:38:37.649Z,11.24
2022-09-26T01:41:05.553Z,11.23
2022-09-26T01:44:02.507Z,11.23
2022-09-26T01:46:40.831Z,11.24
2022-09-26T01:49:44.009Z,11.25
2022-09-26T01:52:35.053Z,11.26
2022-09-26T01:55:28.223Z,11.28
2022-09-26T01:58:02.215Z,11.29
2022-09-26T02:00:31.496Z,11.31
2022-09-26T02:03:01.348Z,11.32
2022-09-26T02:05:44.859Z,11.32
2022-09-26T02:08:13.044Z,11.32
2022-09-26T02:11:06.961Z,11.33
2022-09-26T02:14:12.121Z,11.34
2022-09-26T02:16:47.563Z,11.36
2022-09-26T02:19:29.783Z,11.38
2022-09-26T02:21:59.141Z,11.40
2022-09-26T02:24:28.566Z,11.43
2022-09-26T02:26:58.082Z,11.45
2022-09-26T02:29:26.413Z,11.48
2022-09-26T02:32:04.109Z,11.50
2022-09-26T02:34:32.305Z,11.53
2022-09-26T02:37:01.334Z,11.55
2022-09-26T02:39:33.943Z,11.56
2022-09-26T02:42:24.682Z,11.58
2022-09-26T02:45:28.175Z,11.60
2022-09-26T02:48:29.081Z,11.62
2022-09-26T02:51:33.436Z,11.64
2022-09-26T02:54:22.584Z,11.66
2022-09-26T02:57:06.435Z,11.68
2022-09-26T02:59:49.324Z,11.71
2022-09-26T03:02:24.738Z,11.73
2022-09-26T03:05:18.442Z,11.76
2022-09-26T03:07:56.998Z,11.80
2022-09-26T03:10:29.239Z,11.83
2022-09-26T03:13:05.511Z,11.85
2022-09-26T03:15:35.716Z,11.89
2022-09-26T03:18:10.594Z,11.92
2022-09-26T03:20:38.760Z,11.96
2022-09-26T03:23:06.577Z,11.99
2022-09-26T03:25:34.488Z,12.02
2022-09-26T03:28:06.275Z,12.05
2022-09-26T03:30:34.895Z,12.08
2022-09-26T03:33:21.751Z,12.10
2022-09-26T03:35:49.995Z,12.13
2022-09-26T03:38:17.851Z,12.15
2022-09-26T03:40:53.957Z,12.15
2022-09-26T03:43:56.633Z,12.11
2022-09-26T03:46:25.592Z,12.09
2022-09-26T03:48:53.744Z,12.10
2022-09-26T03:51:22.073Z,12.12
2022-09-26T03:53:50.552Z,12.15
2022-09-26T03:56:21.033Z,12.16
2022-09-26T03:58:51.650Z,12.17
2022-09-26T04:01:22.837Z,12.19
2022-09-26T04:03:51.472Z,12.19
2022-09-26T04:06:21.193Z,12.20
2022-09-26T04:08:52.697Z,12.18
2022-09-26T04:11:23.088Z,12.18
2022-09-26T04:13:53.579Z,12.16
2022-09-26T04:16:26.283Z,12.12
2022-09-26T04:19:00.114Z,12.12
2022-09-26T04:21:29.852Z,12.12
2022-09-26T04:23:59.539Z,12.11
2022-09-26T04:26:30.320Z,12.08
2022-09-26T04:28:59.206Z,12.04
2022-09-26T04:31:45.732Z,11.96
2022-09-26T04:34:17.149Z,11.93
2022-09-26T04:36:45.717Z,11.94
2022-09-26T04:39:14.829Z,11.96
2022-09-26T04:41:43.275Z,11.99
2022-09-26T04:44:15.359Z,12.02
2022-09-26T04:46:44.680Z,12.05
2022-09-26T04:49:22.692Z,12.08
2022-09-26T04:51:52.224Z,12.12
2022-09-26T04:54:20.571Z,12.13
2022-09-26T04:56:49.726Z,12.15
2022-09-26T04:59:17.849Z,12.17
2022-09-26T05:01:55.688Z,12.20
2022-09-26T05:04:34.184Z,12.22
2022-09-26T05:07:02.194Z,12.21
2022-09-26T05:09:35.940Z,12.23
2022-09-26T05:12:08.986Z,12.25
2022-09-26T05:14:38.251Z,12.27
2022-09-26T05:17:06.543Z,12.30
2022-09-26T05:19:34.824Z,12.34
2022-09-26T05:22:21.583Z,12.38
2022-09-26T05:25:09.612Z,12.41
2022-09-26T05:27:37.900Z,12.45
2022-09-26T05:30:07.540Z,12.47
2022-09-26T05:32:35.448Z,12.49
2022-09-26T05:35:05.732Z,12.52
2022-09-26T05:37:35.148Z,12.56
2022-09-26T05:40:22.240Z,12.59
2022-09-26T05:42:51.861Z,12.64
2022-09-26T05:45:20.114Z,12.68
2022-09-26T05:47:48.837Z,12.73
2022-09-26T05:50:22.492Z,12.76
2022-09-26T05:52:51.350Z,12.80
2022-09-26T05:55:26.390Z,12.83
2022-09-26T05:58:07.878Z,12.85
2022-09-26T06:00:54.793Z,12.89
2022-09-26T06:03:23.850Z,12.91
2022-09-26T06:06:06.112Z,12.93
2022-09-26T06:08:36.809Z,12.96
2022-09-26T06:11:31.144Z,12.98
2022-09-26T06:14:01.129Z,12.98
2022-09-26T06:16:29.956Z,13.00
2022-09-26T06:18:58.534Z,13.02
2022-09-26T06:21:27.644Z,13.04
2022-09-26T06:24:06.284Z,13.06
2022-09-26T06:26:34.269Z,13.08
2022-09-26T06:29:04.479Z,13.09
2022-09-26T06:31:37.833Z,13.10
2022-09-26T06:34:14.906Z,13.10
2022-09-26T06:36:49.871Z,13.12
2022-09-26T06:39:19.294Z,13.11
2022-09-26T06:41:48.356Z,13.07
2022-09-26T06:44:30.201Z,13.07
2022-09-26T06:47:30.433Z,13.09
2022-09-26T06:50:25.005Z,13.08
2022-09-26T06:52:57.954Z,13.08
2022-09-26T06:55:26.340Z,13.10
2022-09-26T06:57:54.397Z,13.09
2022-09-26T07:00:26.460Z,13.10
2022-09-26T07:03:08.429Z,13.10
2022-09-26T07:05:59.384Z,13.08
2022-09-26T07:14:06.135Z,13.15
2022-09-26T07:16:35.676Z,13.19
2022-09-26T07:19:20.440Z,13.23
2022-09-26T07:22:03.721Z,13.30
2022-09-26T07:24:35.846Z,13.38
2022-09-26T07:27:04.112Z,13.46
2022-09-26T07:29:33.079Z,13.54
2022-09-26T07:32:02.477Z,13.64
2022-09-26T07:34:42.955Z,13.63
2022-09-26T07:37:13.022Z,13.59
2022-09-26T07:39:41.800Z,13.67
2022-09-26T07:42:11.041Z,13.74
2022-09-26T07:45:17.429Z,13.78
2022-09-26T07:47:46.462Z,13.74
2022-09-26T07:50:45.091Z,13.70
2022-09-26T07:53:29.919Z,13.73
2022-09-26T07:56:20.834Z,13.72
2022-09-26T07:59:11.562Z,13.74
2022-09-26T08:01:59.249Z,13.83
2022-09-26T08:04:33.188Z,13.84
2022-09-26T08:07:04.876Z,13.91
2022-09-26T08:09:37.433Z,13.95
2022-09-26T08:12:37.982Z,13.84
2022-09-26T08:15:24.544Z,13.82
2022-09-26T08:18:03.178Z,13.82
2022-09-26T08:20:32.468Z,13.85
2022-09-26T08:23:00.696Z,13.99
2022-09-26T08:25:30.508Z,14.10
2022-09-26T08:28:21.823Z,14.21
2022-09-26T08:30:51.138Z,14.31
2022-09-26T08:33:20.703Z,14.31
2022-09-26T08:35:50.119Z,14.29
2022-09-26T08:38:39.403Z,14.27
2022-09-26T08:41:50.001Z,14.25
2022-09-26T08:45:02.043Z,14.20
2022-09-26T08:48:14.893Z,14.09
2022-09-26T08:51:35.107Z,14.05
2022-09-26T08:54:13.147Z,14.06
2022-09-26T08:56:46.218Z,14.06
2022-09-26T08:59:39.677Z,13.99
2022-09-26T09:02:21.219Z,13.80
2022-09-26T09:05:03.113Z,13.68
2022-09-26T09:07:32.396Z,13.70
2022-09-26T09:10:06.354Z,13.74
2022-09-26T09:13:07.898Z,13.75
2022-09-26T09:16:25.094Z,13.74
2022-09-26T09:19:34.509Z,13.74
2022-09-26T09:22:47.078Z,13.75
2022-09-26T09:25:25.243Z,13.74
2022-09-26T09:28:23.253Z,13.77
2022-09-26T09:31:02.549Z,13.81
2022-09-26T09:34:00.440Z,13.85
2022-09-26T09:36:59.898Z,13.84
2022-09-26T09:39:50.177Z,13.78
2022-09-26T09:42:38.146Z,13.71
2022-09-26T09:45:15.907Z,13.73
2022-09-26T09:47:47.226Z,13.71
2022-09-26T09:50:40.648Z,13.68
2022-09-26T09:53:18.645Z,13.71
2022-09-26T09:55:53.891Z,13.79
2022-09-26T09:58:42.958Z,13.82
2022-09-26T10:01:32.483Z,13.91
2022-09-26T10:04:23.310Z,13.94
2022-09-26T10:06:51.679Z,13.95
2022-09-26T10:09:35.516Z,13.89
2022-09-26T10:12:29.741Z,13.85
2022-09-26T10:15:23.756Z,13.86
2022-09-26T10:18:25.420Z,13.87
2022-09-26T10:21:12.322Z,13.90
2022-09-26T10:23:47.589Z,13.91
2022-09-26T10:26:31.135Z,13.87
2022-09-26T10:29:07.063Z,13.92
2022-09-26T10:31:42.319Z,13.95
2022-09-26T10:34:28.609Z,13.97
2022-09-26T10:37:19.726Z,13.92
2022-09-26T10:40:13.546Z,13.89
2022-09-26T10:42:46.885Z,13.77
2022-09-26T10:45:27.404Z,13.59
2022-09-26T10:48:22.129Z,13.49
2022-09-26T10:51:11.926Z,13.52
2022-09-26T10:53:48.312Z,13.61
2022-09-26T10:56:26.342Z,13.73
2022-09-26T10:59:06.390Z,13.92
2022-09-26T11:01:43.537Z,14.10
2022-09-26T11:04:36.593Z,14.28
2022-09-26T11:07:36.185Z,14.43
2022-09-26T11:10:27.075Z,14.60
2022-09-26T11:13:19.299Z,14.66
2022-09-26T11:16:06.476Z,14.68
2022-09-26T11:18:39.817Z,14.73
2022-09-26T11:21:28.683Z,14.75
2022-09-26T11:24:03.313Z,14.91
2022-09-26T11:27:03.497Z,15.09
2022-09-26T11:30:09.360Z,15.34
2022-09-26T11:32:44.032Z,15.55
2022-09-26T11:36:01.787Z,15.85
2022-09-26T11:38:55.663Z,16.12
2022-09-26T11:42:04.281Z,16.51
2022-09-26T11:45:08.371Z,16.86
2022-09-26T11:48:20.164Z,16.93
2022-09-26T11:51:24.027Z,16.79
2022-09-26T11:54:10.070Z,16.68
2022-09-26T11:57:03.309Z,16.64
2022-09-26T11:59:58.919Z,16.72
2022-09-26T12:02:54.484Z,16.78
2022-09-26T12:05:45.748Z,16.80
2022-09-26T12:08:40.877Z,16.64
2022-09-26T12:11:21.138Z,16.50
2022-09-26T12:14:03.449Z,16.40
2022-09-26T12:16:52.195Z,16.33
2022-09-26T12:19:52.634Z,16.34
2022-09-26T12:22:46.438Z,16.35
2022-09-26T12:25:35.106Z,16.24
2022-09-26T12:28:16.559Z,16.30
2022-09-26T12:31:01.096Z,16.50
2022-09-26T12:34:05.043Z,16.62
2022-09-26T12:36:48.040Z,16.66
2022-09-26T12:39:32.124Z,16.72
2022-09-26T12:42:00.169Z,16.71
2022-09-26T12:44:42.808Z,16.64
2022-09-26T12:47:38.205Z,16.68
2022-09-26T12:50:31.273Z,16.65
2022-09-26T12:53:28.430Z,16.68
2022-09-26T12:56:07.346Z,16.64
2022-09-26T12:59:16.230Z,16.68
2022-09-26T13:02:07.284Z,16.81
2022-09-26T13:05:04.847Z,16.99
2022-09-26T13:07:46.402Z,17.15
2022-09-26T13:10:28.923Z,17.15
2022-09-26T13:13:30.285Z,17.15
2022-09-26T13:16:36.686Z,17.02
2022-09-26T13:19:23.877Z,16.98
2022-09-26T13:22:05.679Z,16.98
2022-09-26T13:24:46.935Z,17.03
2022-09-26T13:27:22.261Z,17.09
2022-09-26T13:30:06.267Z,17.12
2022-09-26T13:32:49.202Z,17.23
2022-09-26T13:35:23.826Z,17.25
2022-09-26T13:38:20.331Z,17.31
2022-09-26T13:41:33.983Z,17.42
2022-09-26T13:44:22.988Z,17.48
2022-09-26T13:47:10.188Z,17.47
2022-09-26T13:49:56.857Z,17.41
2022-09-26T13:52:52.981Z,17.30
2022-09-26T13:55:21.914Z,17.23
2022-09-26T13:58:00.192Z,17.21
2022-09-26T14:00:41.003Z,17.22
2022-09-26T14:03:19.297Z,17.19
2022-09-26T14:05:52.612Z,17.17
2022-09-26T14:08:55.784Z,17.17
2022-09-26T14:11:43.911Z,17.13
2022-09-26T14:14:17.205Z,17.07
2022-09-26T14:16:46.182Z,17.07
2022-09-26T14:19:38.443Z,17.11
2022-09-26T14:22:25.217Z,17.14
2022-09-26T14:24:54.580Z,17.15
2022-09-26T14:27:43.007Z,17.15
2022-09-26T14:30:30.862Z,17.14
2022-09-26T14:33:13.214Z,17.14
2022-09-26T14:35:43.329Z,17.13
2022-09-26T14:38:21.310Z,17.10
2022-09-26T14:41:18.510Z,17.08
2022-09-26T14:43:49.774Z,17.05
2022-09-26T14:46:23.206Z,17.03
2022-09-26T14:49:01.879Z,17.01
2022-09-26T14:51:37.308Z,16.99
2022-09-26T14:54:27.861Z,16.98
2022-09-26T14:57:21.035Z,16.93
2022-09-26T14:59:51.316Z,16.87
2022-09-26T15:02:20.774Z,16.83
2022-09-26T15:05:00.465Z,16.81
2022-09-26T15:07:34.812Z,16.79
2022-09-26T15:10:20.568Z,16.76
2022-09-26T15:13:03.106Z,16.71
2022-09-26T15:15:39.049Z,16.67
2022-09-26T15:18:27.185Z,16.65
2022-09-26T15:21:04.401Z,16.60
2022-09-26T15:23:44.480Z,16.58
2022-09-26T15:26:18.189Z,16.55
2022-09-26T15:28:49.494Z,16.51
2022-09-26T15:31:43.856Z,16.47
2022-09-26T15:34:19.693Z,16.42
2022-09-26T15:36:55.990Z,16.38
2022-09-26T15:39:30.087Z,16.35
2022-09-26T15:42:19.024Z,16.30
2022-09-26T15:45:25.745Z,16.30
2022-09-26T15:47:56.561Z,16.33
2022-09-26T15:51:06.480Z,16.36
2022-09-26T15:53:37.478Z,16.35
2022-09-26T15:56:18.923Z,16.32
2022-09-26T15:58:55.156Z,16.28
2022-09-26T16:01:29.455Z,16.21
2022-09-26T16:04:01.063Z,16.17
2022-09-26T16:06:31.227Z,16.07
2022-09-26T16:09:14.677Z,15.95
2022-09-26T16:11:56.394Z,15.83
2022-09-26T16:14:30.620Z,15.71
2022-09-26T16:17:30.275Z,15.61
2022-09-26T16:20:21.991Z,15.49
2022-09-26T16:23:00.314Z,15.36
2022-09-26T16:25:56.541Z,15.24
2022-09-26T16:28:48.419Z,15.12
2022-09-26T16:31:24.716Z,14.99
2022-09-26T16:33:55.177Z,14.86
2022-09-26T16:36:25.142Z,14.75
2022-09-26T16:38:56.495Z,14.63
2022-09-26T16:41:59.373Z,14.51
2022-09-26T16:44:34.372Z,14.39
2022-09-26T16:47:07.578Z,14.26
2022-09-26T16:49:48.904Z,14.14
2022-09-26T16:52:36.515Z,14.01
2022-09-26T16:55:07.518Z,13.88
2022-09-26T16:57:38.656Z,13.77
2022-09-26T17:00:39.425Z,13.66
2022-09-26T17:03:34.835Z,13.55
2022-09-26T17:06:02.718Z,13.45
2022-09-26T17:08:30.592Z,13.35
2022-09-26T17:11:03.824Z,13.26
2022-09-26T17:13:45.943Z,13.16
2022-09-26T17:16:40.904Z,13.06
2022-09-26T17:19:29.397Z,12.96
2022-09-26T17:22:01.659Z,12.86
2022-09-26T17:24:31.004Z,12.78
2022-09-26T17:27:01.821Z,12.70
2022-09-26T17:29:40.201Z,12.63
2022-09-26T17:32:49.828Z,12.57
2022-09-26T17:35:25.383Z,12.48
2022-09-26T17:37:55.664Z,12.41
2022-09-26T17:40:29.744Z,12.34
2022-09-26T17:43:00.426Z,12.27
2022-09-26T17:45:34.307Z,12.18
2022-09-26T17:48:05.655Z,12.13
2022-09-26T17:50:35.751Z,12.07
2022-09-26T17:53:07.462Z,12.00
2022-09-26T17:55:35.775Z,11.94
2022-09-26T17:58:05.264Z,11.89
2022-09-26T18:00:41.512Z,11.85
2022-09-26T18:03:27.055Z,11.80
2022-09-26T18:05:56.293Z,11.76
2022-09-26T18:08:30.880Z,11.72
2022-09-26T18:11:08.229Z,11.68
2022-09-26T18:13:45.697Z,11.64
2022-09-26T18:16:15.309Z,11.61
2022-09-26T18:18:44.442Z,11.58
2022-09-26T18:21:18.876Z,11.54
2022-09-26T18:24:01.935Z,11.51
2022-09-26T18:26:33.884Z,11.46
2022-09-26T18:29:07.911Z,11.42
2022-09-26T18:31:41.318Z,11.37
2022-09-26T18:34:20.737Z,11.33
2022-09-26T18:36:50.893Z,11.30
2022-09-26T18:39:19.364Z,11.26
2022-09-26T18:41:51.315Z,11.23
2022-09-26T18:44:21.270Z,11.19
2022-09-26T18:46:50.531Z,11.16
2022-09-26T18:49:19.900Z,11.13
2022-09-26T18:51:48.613Z,11.10
2022-09-26T18:54:17.975Z,11.10
2022-09-26T18:57:06.778Z,11.07
2022-09-26T18:59:35.200Z,11.05
2022-09-26T19:02:05.355Z,11.05
2022-09-26T19:04:34.190Z,11.03
2022-09-26T19:07:07.177Z,11.02
2022-09-26T19:09:36.445Z,11.02
2022-09-26T19:12:06.734Z,11.01
2022-09-26T19:14:36.311Z,11.00
2022-09-26T19:17:04.966Z,10.99
2022-09-26T19:19:33.586Z,10.98
2022-09-26T19:22:10.449Z,10.99
2022-09-26T19:24:53.749Z,11.00
2022-09-26T19:27:25.247Z,11.01
2022-09-26T19:30:04.928Z,11.00
2022-09-26T19:32:39.209Z,11.01
2022-09-26T19:35:17.416Z,11.01
2022-09-26T19:37:45.344Z,11.02
2022-09-26T19:40:16.109Z,11.02
2022-09-26T19:42:44.251Z,11.01
2022-09-26T19:45:13.645Z,11.00
2022-09-26T19:47:45.703Z,11.00
2022-09-26T19:50:21.117Z,10.98
2022-09-26T19:52:51.914Z,10.98
2022-09-26T19:55:26.795Z,10.97
2022-09-26T19:57:58.621Z,10.95
2022-09-26T20:00:27.521Z,10.94
2022-09-26T20:02:55.458Z,10.93
2022-09-26T20:05:26.078Z,10.91
2022-09-26T20:07:53.951Z,10.89
2022-09-26T20:10:25.431Z,10.88
2022-09-26T20:12:53.971Z,10.86
2022-09-26T20:15:22.585Z,10.85
2022-09-26T20:17:51.241Z,10.83
2022-09-26T20:20:23.151Z,10.82
2022-09-26T20:22:55.783Z,10.79
2022-09-26T20:25:27.418Z,10.75
2022-09-26T20:27:56.402Z,10.71
2022-09-26T20:30:44.846Z,10.68
2022-09-26T20:33:13.519Z,10.63
2022-09-26T20:35:44.550Z,10.59
2022-09-26T20:38:32.160Z,10.56
2022-09-26T20:41:10.558Z,10.52
2022-09-26T20:43:46.869Z,10.48
2022-09-26T20:46:15.345Z,10.45
2022-09-26T20:48:45.921Z,10.42
2022-09-26T20:51:28.282Z,10.40
2022-09-26T20:54:00.809Z,10.39
2022-09-26T20:56:29.009Z,10.37
2022-09-26T20:58:58.629Z,10.36
2022-09-26T21:01:28.712Z,10.35
2022-09-26T21:03:56.868Z,10.35
2022-09-26T21:06:34.540Z,10.35
2022-09-26T21:09:04.240Z,10.34
2022-09-26T21:11:32.218Z,10.35
2022-09-26T21:14:00.176Z,10.35
2022-09-26T21:16:27.986Z,10.36
2022-09-26T21:18:55.981Z,10.36
2022-09-26T21:21:29.559Z,10.34
2022-09-26T21:24:24.258Z,10.33
2022-09-26T21:26:52.863Z,10.31
2022-09-26T21:29:20.700Z,10.29
2022-09-26T21:31:51.462Z,10.27
2022-09-26T21:34:24.940Z,10.24
2022-09-26T21:36:57.159Z,10.21
2022-09-26T21:39:25.619Z,10.19
2022-09-26T21:41:59.027Z,10.18
2022-09-26T21:44:38.133Z,10.16
2022-09-26T21:47:06.695Z,10.13
2022-09-26T21:49:35.121Z,10.10
2022-09-26T21:52:28.535Z,10.06
2022-09-26T21:55:00.051Z,10.05
2022-09-26T21:57:33.432Z,10.05
2022-09-26T22:00:05.253Z,10.03
2022-09-26T22:02:41.992Z,10.03
2022-09-26T22:05:12.029Z,10.02
2022-09-26T22:07:39.822Z,10.02
2022-09-26T22:10:08.110Z,10.02
2022-09-26T22:12:36.285Z,10.02
2022-09-26T22:15:07.246Z,10.02
2022-09-26T22:17:35.382Z,10.02
2022-09-26T22:20:05.936Z,10.02
2022-09-26T22:22:34.562Z,10.03
2022-09-26T22:25:03.323Z,10.04
2022-09-26T22:27:36.305Z,10.05
2022-09-26T22:30:06.190Z,10.08
2022-09-26T22:32:34.637Z,10.11
2022-09-26T22:35:02.713Z,10.14
2022-09-26T22:37:30.464Z,10.18
2022-09-26T22:39:58.826Z,10.23
2022-09-26T22:42:28.420Z,10.29
2022-09-26T22:44:56.220Z,10.34
2022-09-26T22:47:25.517Z,10.40
2022-09-26T22:49:54.416Z,10.47
2022-09-26T22:52:22.803Z,10.53
2022-09-26T22:54:50.724Z,10.60
2022-09-26T22:57:19.104Z,10.66
2022-09-26T22:59:47.619Z,10.73
2022-09-26T23:02:15.511Z,10.79
2022-09-26T23:04:49.191Z,10.86
2022-09-26T23:07:18.864Z,10.94
2022-09-26T23:09:47.141Z,11.01
2022-09-26T23:12:15.407Z,11.08
2022-09-26T23:14:45.043Z,11.17
2022-09-26T23:17:13.049Z,11.25
2022-09-26T23:19:41.575Z,11.32
2022-09-26T23:22:09.363Z,11.40
2022-09-26T23:24:37.280Z,11.47
2022-09-26T23:27:05.605Z,11.52
2022-09-26T23:29:33.371Z,11.57
2022-09-26T23:32:01.972Z,11.61
2022-09-26T23:34:29.818Z,11.65
2022-09-26T23:36:57.645Z,11.66
2022-09-26T23:39:25.451Z,11.67
2022-09-26T23:41:54.961Z,11.69
2022-09-26T23:44:22.785Z,11.70
2022-09-26T23:46:50.707Z,11.71
2022-09-26T23:49:18.555Z,11.72
2022-09-26T23:51:47.763Z,11.73
2022-09-26T23:54:15.544Z,11.75
2022-09-26T23:56:44.335Z,11.77
2022-09-26T23:59:13.519Z,11.77
